createdAt,value
2023-12-26T00:02:56.383Z,14.22
2023-12-26T00:08:00.449Z,14.20
2023-12-26T00:13:04.246Z,14.21
2023-12-26T00:18:10.893Z,13.92
2023-12-26T00:23:14.736Z,13.95
2023-12-26T00:28:18.442Z,13.88
2023-12-26T00:33:23.916Z,13.64
2023-12-26T00:38:27.762Z,13.56
2023-12-26T00:43:31.475Z,13.36
2023-12-26T00:48:37.847Z,13.09
2023-12-26T00:53:41.833Z,12.92
2023-12-26T00:58:45.998Z,12.87
2023-12-26T01:03:51.440Z,12.62
2023-12-26T01:08:55.329Z,12.67
2023-12-26T01:13:59.069Z,12.66
2023-12-26T01:19:04.674Z,12.67
2023-12-26T01:24:09.034Z,12.71
2023-12-26T01:29:15.045Z,12.59
2023-12-26T01:34:21.722Z,12.58
2023-12-26T01:39:25.608Z,12.89
2023-12-26T01:44:29.698Z,12.76
2023-12-26T01:49:35.437Z,12.38
2023-12-26T01:54:40.213Z,12.33
2023-12-26T01:59:45.569Z,12.32
2023-12-26T02:04:51.392Z,12.06
2023-12-26T02:09:55.325Z,11.90
2023-12-26T02:14:59.167Z,11.90
2023-12-26T02:20:04.886Z,12.04
2023-12-26T02:25:10.850Z,12.07
2023-12-26T02:30:18.547Z,11.97
2023-12-26T02:35:23.712Z,11.89
2023-12-26T02:40:29.547Z,11.77
2023-12-26T02:45:34.558Z,11.72
2023-12-26T02:50:38.303Z,11.59
2023-12-26T02:55:43.857Z,11.88
2023-12-26T03:00:49.030Z,12.01
2023-12-26T03:05:56.261Z,12.03
2023-12-26T03:11:01.743Z,12.01
2023-12-26T03:16:05.800Z,12.15
2023-12-26T03:21:09.509Z,12.17
2023-12-26T03:26:15.171Z,12.16
2023-12-26T03:31:19.387Z,12.18
2023-12-26T03:36:23.728Z,12.13
2023-12-26T03:41:29.195Z,12.11
2023-12-26T03:46:33.060Z,12.13
2023-12-26T03:51:37.208Z,12.09
2023-12-26T03:56:42.734Z,11.92
2023-12-26T04:01:46.443Z,11.94
2023-12-26T04:06:50.135Z,11.87
2023-12-26T04:11:55.606Z,12.29
2023-12-26T04:16:59.389Z,12.14
2023-12-26T04:22:03.089Z,12.03
2023-12-26T04:27:09.234Z,11.87
2023-12-26T04:32:13.013Z,11.69
2023-12-26T04:37:16.695Z,11.79
2023-12-26T04:42:22.029Z,11.86
2023-12-26T04:47:25.970Z,11.66
2023-12-26T04:52:29.727Z,11.54
2023-12-26T04:57:35.379Z,11.54
2023-12-26T05:02:39.401Z,11.33
2023-12-26T05:07:44.333Z,11.27
2023-12-26T05:12:49.714Z,11.33
2023-12-26T05:17:55.884Z,10.93
2023-12-26T05:23:00.611Z,10.85
2023-12-26T05:28:06.484Z,11.06
2023-12-26T05:33:10.483Z,10.95
2023-12-26T05:38:14.221Z,10.76
2023-12-26T05:43:19.555Z,10.86
2023-12-26T05:48:23.719Z,11.02
2023-12-26T05:53:27.495Z,11.30
2023-12-26T05:58:33.423Z,11.43
2023-12-26T06:03:37.133Z,11.25
2023-12-26T06:08:41.551Z,11.09
2023-12-26T06:13:47.031Z,11.17
2023-12-26T06:18:50.918Z,10.99
2023-12-26T06:23:54.893Z,11.06
2023-12-26T06:29:00.258Z,11.04
2023-12-26T06:34:04.086Z,10.92
2023-12-26T06:39:08.001Z,10.76
2023-12-26T06:44:13.383Z,10.73
2023-12-26T06:49:17.168Z,10.68
2023-12-26T06:54:20.967Z,10.65
2023-12-26T06:59:27.244Z,10.60
2023-12-26T07:04:31.139Z,10.53
2023-12-26T07:09:34.825Z,10.49
2023-12-26T07:14:40.232Z,10.40
2023-12-26T07:19:44.060Z,10.47
2023-12-26T07:24:47.826Z,10.29
2023-12-26T07:29:53.317Z,10.34
2023-12-26T07:34:57.055Z,10.24
2023-12-26T07:40:00.758Z,10.27
2023-12-26T07:45:06.929Z,10.22
2023-12-26T07:50:10.251Z,10.02
2023-12-26T07:55:15.667Z,9.88
2023-12-26T08:00:22.714Z,9.99
2023-12-26T08:05:26.433Z,10.04
2023-12-26T08:10:30.753Z,9.92
2023-12-26T08:15:37.037Z,9.97
2023-12-26T08:20:40.747Z,9.87
2023-12-26T08:25:45.265Z,9.89
2023-12-26T08:30:51.659Z,9.88
2023-12-26T08:35:55.507Z,9.65
2023-12-26T08:40:59.300Z,9.71
2023-12-26T08:46:04.744Z,9.81
2023-12-26T08:51:08.457Z,9.54
2023-12-26T08:56:12.233Z,9.48
2023-12-26T09:01:17.629Z,9.43
2023-12-26T09:06:21.397Z,9.50
2023-12-26T09:11:25.186Z,9.65
2023-12-26T09:16:30.537Z,9.48
2023-12-26T09:21:34.317Z,9.41
2023-12-26T09:26:38.095Z,9.47
2023-12-26T09:31:43.496Z,9.55
2023-12-26T09:36:47.201Z,9.37
2023-12-26T09:41:54.302Z,9.47
2023-12-26T09:46:59.772Z,9.45
2023-12-26T09:52:07.016Z,9.47
2023-12-26T09:57:12.051Z,9.27
2023-12-26T10:02:17.538Z,9.22
2023-12-26T10:07:21.294Z,9.33
2023-12-26T10:12:28.984Z,9.36
2023-12-26T10:17:35.272Z,9.38
2023-12-26T10:22:38.232Z,9.27
2023-12-26T10:27:42.656Z,9.23
2023-12-26T10:32:48.282Z,9.23
2023-12-26T10:37:54.199Z,9.24
2023-12-26T10:43:02.266Z,9.40
2023-12-26T10:48:11.149Z,9.10
2023-12-26T10:53:17.747Z,9.07
2023-12-26T10:58:22.321Z,9.15
2023-12-26T11:04:02.300Z,9.23
2023-12-26T11:09:42.291Z,9.28
2023-12-26T11:15:22.912Z,9.07
2023-12-26T11:21:02.808Z,9.36
2023-12-26T11:26:42.508Z,9.14
2023-12-26T11:32:22.316Z,9.00
2023-12-26T11:38:02.720Z,9.06
2023-12-26T11:43:43.715Z,9.13
2023-12-26T11:49:23.465Z,9.13
2023-12-26T11:55:03.531Z,8.95
2023-12-26T12:00:43.507Z,9.01
2023-12-26T12:06:24.379Z,9.07
2023-12-26T12:12:04.999Z,9.07
2023-12-26T12:17:44.998Z,9.02
2023-12-26T12:23:25.268Z,8.97
2023-12-26T12:29:05.101Z,9.00
2023-12-26T12:34:44.876Z,9.04
2023-12-26T12:40:24.602Z,8.87
2023-12-26T12:46:04.632Z,8.95
2023-12-26T12:51:44.501Z,8.81
2023-12-26T12:57:24.334Z,8.85
2023-12-26T13:03:08.353Z,8.95
2023-12-26T13:08:52.755Z,8.92
2023-12-26T13:14:32.485Z,8.91
2023-12-26T13:20:12.266Z,8.99
2023-12-26T13:25:52.777Z,8.89
2023-12-26T13:31:32.668Z,8.86
2023-12-26T13:37:12.376Z,8.91
2023-12-26T13:42:52.080Z,8.95
2023-12-26T13:48:32.149Z,8.94
2023-12-26T13:53:38.508Z,8.91
2023-12-26T13:58:41.448Z,8.84
2023-12-26T14:03:45.185Z,8.84
2023-12-26T14:08:51.608Z,8.88
2023-12-26T14:13:55.350Z,8.86
2023-12-26T14:18:59.180Z,8.89
2023-12-26T14:24:04.702Z,8.90
2023-12-26T14:29:08.361Z,8.80
2023-12-26T14:34:12.108Z,8.84
2023-12-26T14:39:17.578Z,8.81
2023-12-26T14:44:21.260Z,8.92
2023-12-26T14:49:24.942Z,9.04
2023-12-26T14:54:30.277Z,9.13
2023-12-26T14:59:33.967Z,9.09
2023-12-26T15:04:37.788Z,9.04
2023-12-26T15:09:43.185Z,9.10
2023-12-26T15:19:51.094Z,9.20
2023-12-26T15:24:56.564Z,9.23
2023-12-26T15:30:00.645Z,9.31
2023-12-26T15:35:04.784Z,9.40
2023-12-26T15:40:12.964Z,9.37
2023-12-26T15:45:18.870Z,9.25
2023-12-26T15:50:22.671Z,9.31
2023-12-26T15:55:28.113Z,9.49
2023-12-26T16:00:31.995Z,9.72
2023-12-26T16:05:38.201Z,9.65
2023-12-26T16:10:44.744Z,9.76
2023-12-26T16:15:48.812Z,9.85
2023-12-26T16:20:52.557Z,9.91
2023-12-26T16:25:58.046Z,9.95
2023-12-26T16:31:03.987Z,9.99
2023-12-26T16:36:11.290Z,10.18
2023-12-26T16:41:16.795Z,10.24
2023-12-26T16:46:22.038Z,10.36
2023-12-26T16:51:25.826Z,10.49
2023-12-26T16:56:31.249Z,10.49
2023-12-26T17:01:42.264Z,10.46
2023-12-26T17:06:46.132Z,10.55
2023-12-26T17:11:51.609Z,10.67
2023-12-26T17:16:55.342Z,10.82
2023-12-26T17:21:59.333Z,10.85
2023-12-26T17:27:05.015Z,10.86
2023-12-26T17:32:08.951Z,11.09
2023-12-26T17:37:12.630Z,11.13
2023-12-26T17:42:18.111Z,11.14
2023-12-26T17:47:21.820Z,11.05
2023-12-26T17:52:25.513Z,11.09
2023-12-26T17:57:30.974Z,11.05
2023-12-26T18:02:34.764Z,11.14
2023-12-26T18:07:38.584Z,11.37
2023-12-26T18:12:43.941Z,11.47
2023-12-26T18:17:47.710Z,11.61
2023-12-26T18:22:51.580Z,11.71
2023-12-26T18:27:57.134Z,11.87
2023-12-26T18:33:01.189Z,12.07
2023-12-26T18:38:05.117Z,12.25
2023-12-26T18:43:11.324Z,12.67
2023-12-26T18:48:14.499Z,13.08
2023-12-26T18:53:18.326Z,13.19
2023-12-26T18:58:24.106Z,13.13
2023-12-26T19:03:27.860Z,13.32
2023-12-26T19:08:32.572Z,13.27
2023-12-26T19:13:37.916Z,13.32
2023-12-26T19:18:41.766Z,13.62
2023-12-26T19:23:45.510Z,13.72
2023-12-26T19:28:50.858Z,13.46
2023-12-26T19:33:55.437Z,13.36
2023-12-26T19:38:59.729Z,13.27
2023-12-26T19:44:05.444Z,13.35
2023-12-26T19:49:09.353Z,13.47
2023-12-26T19:54:13.260Z,14.00
2023-12-26T19:59:18.614Z,14.08
2023-12-26T20:04:22.372Z,14.23
2023-12-26T20:09:26.171Z,14.29
2023-12-26T20:14:31.523Z,14.19
2023-12-26T20:19:37.864Z,14.38
2023-12-26T20:24:41.659Z,14.27
2023-12-26T20:29:47.689Z,14.29
2023-12-26T20:34:50.625Z,14.28
2023-12-26T20:39:54.392Z,14.34
2023-12-26T20:44:59.750Z,14.41
2023-12-26T20:50:03.665Z,14.65
2023-12-26T20:55:08.477Z,14.37
2023-12-26T21:00:15.268Z,14.58
2023-12-26T21:05:19.175Z,14.82
2023-12-26T21:10:23.595Z,14.77
2023-12-26T21:15:28.910Z,14.59
2023-12-26T21:20:33.323Z,14.49
2023-12-26T21:25:37.101Z,14.39
2023-12-26T21:30:42.510Z,14.35
2023-12-26T21:35:46.271Z,14.44
2023-12-26T21:40:49.959Z,14.36
2023-12-26T21:45:55.417Z,14.34
2023-12-26T21:50:59.597Z,14.24
2023-12-26T21:56:05.757Z,14.22
2023-12-26T22:01:11.779Z,14.33
2023-12-26T22:06:15.862Z,14.34
2023-12-26T22:11:19.562Z,14.38
2023-12-26T22:16:24.947Z,14.38
2023-12-26T22:21:28.836Z,14.22
2023-12-26T22:26:32.553Z,14.02
2023-12-26T22:31:39.021Z,13.93
2023-12-26T22:36:42.949Z,13.94
2023-12-26T22:41:46.647Z,14.00
2023-12-26T22:46:52.055Z,13.94
2023-12-26T22:51:55.796Z,14.00
2023-12-26T22:56:59.498Z,13.99
2023-12-26T23:02:05.129Z,14.00
2023-12-26T23:07:08.829Z,13.87
2023-12-26T23:12:12.545Z,13.86
2023-12-26T23:17:17.881Z,13.98
2023-12-26T23:22:21.573Z,13.98
2023-12-26T23:27:25.330Z,13.80
2023-12-26T23:32:30.682Z,13.75
2023-12-26T23:37:34.431Z,13.74
2023-12-26T23:42:38.328Z,13.73
2023-12-26T23:47:45.019Z,13.71
2023-12-26T23:52:48.766Z,13.70
2023-12-26T23:57:52.446Z,13.55
